sensor_id;sensor_type;location;lat;lon;timestamp;P1;durP1;ratioP1;P2;durP2;ratioP2
84982;SDS011;75295;45.426;9.696;2024-03-29T00:01:39;36.50;;;24.52;;
84982;SDS011;75295;45.426;9.696;2024-03-29T00:04:06;31.83;;;24.10;;
84982;SDS011;75295;45.426;9.696;2024-03-29T00:06:33;30.48;;;24.58;;
84982;SDS011;75295;45.426;9.696;2024-03-29T00:09:00;37.30;;;24.23;;
84982;SDS011;75295;45.426;9.696;2024-03-29T00:11:27;33.67;;;23.58;;
84982;SDS011;75295;45.426;9.696;2024-03-29T00:13:54;40.20;;;28.08;;
84982;SDS011;75295;45.426;9.696;2024-03-29T00:16:21;33.53;;;26.48;;
84982;SDS011;75295;45.426;9.696;2024-03-29T00:18:51;29.88;;;23.90;;
84982;SDS011;75295;45.426;9.696;2024-03-29T00:21:18;35.83;;;26.65;;
84982;SDS011;75295;45.426;9.696;2024-03-29T00:23:45;26.23;;;19.27;;
84982;SDS011;75295;45.426;9.696;2024-03-29T00:26:12;26.13;;;19.23;;
84982;SDS011;75295;45.426;9.696;2024-03-29T00:28:39;27.13;;;20.58;;
84982;SDS011;75295;45.426;9.696;2024-03-29T00:31:05;23.83;;;17.58;;
84982;SDS011;75295;45.426;9.696;2024-03-29T00:33:33;21.83;;;16.63;;
84982;SDS011;75295;45.426;9.696;2024-03-29T00:36:01;18.00;;;13.75;;
84982;SDS011;75295;45.426;9.696;2024-03-29T00:38:28;15.45;;;13.63;;
84982;SDS011;75295;45.426;9.696;2024-03-29T00:40:55;18.15;;;12.82;;
84982;SDS011;75295;45.426;9.696;2024-03-29T00:43:22;36.13;;;14.30;;
84982;SDS011;75295;45.426;9.696;2024-03-29T00:45:49;44.60;;;15.52;;
84982;SDS011;75295;45.426;9.696;2024-03-29T00:48:15;21.90;;;12.02;;
84982;SDS011;75295;45.426;9.696;2024-03-29T00:50:45;16.25;;;11.68;;
84982;SDS011;75295;45.426;9.696;2024-03-29T00:53:12;14.20;;;11.98;;
84982;SDS011;75295;45.426;9.696;2024-03-29T00:55:38;15.63;;;12.43;;
84982;SDS011;75295;45.426;9.696;2024-03-29T00:58:05;16.52;;;12.07;;
84982;SDS011;75295;45.426;9.696;2024-03-29T01:00:32;15.05;;;12.07;;
84982;SDS011;75295;45.426;9.696;2024-03-29T01:02:58;13.70;;;12.07;;
84982;SDS011;75295;45.426;9.696;2024-03-29T01:05:25;17.13;;;13.98;;
84982;SDS011;75295;45.426;9.696;2024-03-29T01:07:52;15.27;;;12.80;;
84982;SDS011;75295;45.426;9.696;2024-03-29T01:10:18;14.90;;;11.93;;
84982;SDS011;75295;45.426;9.696;2024-03-29T01:12:45;15.55;;;13.07;;
84982;SDS011;75295;45.426;9.696;2024-03-29T01:15:12;16.48;;;13.30;;
84982;SDS011;75295;45.426;9.696;2024-03-29T01:17:39;16.30;;;13.93;;
84982;SDS011;75295;45.426;9.696;2024-03-29T01:20:06;15.35;;;13.48;;
84982;SDS011;75295;45.426;9.696;2024-03-29T01:22:34;17.83;;;13.68;;
84982;SDS011;75295;45.426;9.696;2024-03-29T01:25:01;17.33;;;14.82;;
84982;SDS011;75295;45.426;9.696;2024-03-29T01:27:29;18.45;;;13.95;;
84982;SDS011;75295;45.426;9.696;2024-03-29T01:29:56;16.75;;;13.88;;
84982;SDS011;75295;45.426;9.696;2024-03-29T01:32:23;16.17;;;14.55;;
84982;SDS011;75295;45.426;9.696;2024-03-29T01:34:49;16.35;;;14.30;;
84982;SDS011;75295;45.426;9.696;2024-03-29T01:37:16;16.95;;;14.35;;
84982;SDS011;75295;45.426;9.696;2024-03-29T01:39:43;18.02;;;15.27;;
84982;SDS011;75295;45.426;9.696;2024-03-29T01:42:10;17.88;;;15.98;;
84982;SDS011;75295;45.426;9.696;2024-03-29T01:44:36;17.73;;;15.93;;
84982;SDS011;75295;45.426;9.696;2024-03-29T01:47:03;17.52;;;15.63;;
84982;SDS011;75295;45.426;9.696;2024-03-29T01:49:30;17.75;;;15.88;;
84982;SDS011;75295;45.426;9.696;2024-03-29T01:51:57;18.13;;;15.88;;
84982;SDS011;75295;45.426;9.696;2024-03-29T01:54:24;25.20;;;20.02;;
84982;SDS011;75295;45.426;9.696;2024-03-29T01:56:51;22.40;;;18.35;;
84982;SDS011;75295;45.426;9.696;2024-03-29T01:59:18;23.13;;;19.73;;
84982;SDS011;75295;45.426;9.696;2024-03-29T02:01:45;19.05;;;16.13;;
84982;SDS011;75295;45.426;9.696;2024-03-29T02:04:12;20.27;;;17.15;;
84982;SDS011;75295;45.426;9.696;2024-03-29T02:06:39;22.75;;;20.13;;
84982;SDS011;75295;45.426;9.696;2024-03-29T02:09:06;26.17;;;21.38;;
84982;SDS011;75295;45.426;9.696;2024-03-29T02:11:33;27.77;;;22.00;;
84982;SDS011;75295;45.426;9.696;2024-03-29T02:14:01;28.17;;;22.33;;
84982;SDS011;75295;45.426;9.696;2024-03-29T02:16:27;33.88;;;25.60;;
84982;SDS011;75295;45.426;9.696;2024-03-29T02:18:54;33.15;;;25.90;;
84982;SDS011;75295;45.426;9.696;2024-03-29T02:21:21;30.92;;;24.50;;
84982;SDS011;75295;45.426;9.696;2024-03-29T02:23:53;36.20;;;26.83;;
84982;SDS011;75295;45.426;9.696;2024-03-29T02:26:27;33.42;;;25.77;;
84982;SDS011;75295;45.426;9.696;2024-03-29T02:28:57;32.60;;;24.75;;
84982;SDS011;75295;45.426;9.696;2024-03-29T02:31:24;34.00;;;24.52;;
84982;SDS011;75295;45.426;9.696;2024-03-29T02:33:50;29.92;;;23.58;;
84982;SDS011;75295;45.426;9.696;2024-03-29T02:36:17;31.98;;;25.42;;
84982;SDS011;75295;45.426;9.696;2024-03-29T02:38:44;33.38;;;26.13;;
84982;SDS011;75295;45.426;9.696;2024-03-29T02:41:11;32.28;;;25.85;;
84982;SDS011;75295;45.426;9.696;2024-03-29T02:43:37;32.15;;;25.20;;
84982;SDS011;75295;45.426;9.696;2024-03-29T02:46:04;33.40;;;25.88;;
84982;SDS011;75295;45.426;9.696;2024-03-29T02:48:31;31.02;;;24.95;;
84982;SDS011;75295;45.426;9.696;2024-03-29T02:50:57;32.20;;;24.70;;
84982;SDS011;75295;45.426;9.696;2024-03-29T02:53:24;27.45;;;22.17;;
84982;SDS011;75295;45.426;9.696;2024-03-29T02:55:51;27.55;;;22.38;;
84982;SDS011;75295;45.426;9.696;2024-03-29T02:58:17;31.92;;;24.55;;
84982;SDS011;75295;45.426;9.696;2024-03-29T03:00:44;34.78;;;26.40;;
84982;SDS011;75295;45.426;9.696;2024-03-29T03:03:10;30.45;;;25.27;;
84982;SDS011;75295;45.426;9.696;2024-03-29T03:05:41;32.88;;;25.02;;
84982;SDS011;75295;45.426;9.696;2024-03-29T03:08:08;32.85;;;26.83;;
84982;SDS011;75295;45.426;9.696;2024-03-29T03:10:54;35.47;;;26.90;;
84982;SDS011;75295;45.426;9.696;2024-03-29T03:13:26;33.65;;;27.40;;
84982;SDS011;75295;45.426;9.696;2024-03-29T03:15:55;33.47;;;26.65;;
84982;SDS011;75295;45.426;9.696;2024-03-29T03:18:23;37.00;;;26.88;;
84982;SDS011;75295;45.426;9.696;2024-03-29T03:20:53;34.55;;;26.17;;
84982;SDS011;75295;45.426;9.696;2024-03-29T03:23:20;34.20;;;26.27;;
84982;SDS011;75295;45.426;9.696;2024-03-29T03:26:00;31.27;;;24.10;;
84982;SDS011;75295;45.426;9.696;2024-03-29T03:28:31;32.45;;;23.50;;
84982;SDS011;75295;45.426;9.696;2024-03-29T03:30:58;34.80;;;24.63;;
84982;SDS011;75295;45.426;9.696;2024-03-29T03:33:25;33.22;;;24.13;;
84982;SDS011;75295;45.426;9.696;2024-03-29T03:35:52;32.40;;;24.17;;
84982;SDS011;75295;45.426;9.696;2024-03-29T03:38:19;29.73;;;23.75;;
84982;SDS011;75295;45.426;9.696;2024-03-29T03:40:46;28.30;;;22.40;;
84982;SDS011;75295;45.426;9.696;2024-03-29T03:43:12;28.70;;;22.85;;
84982;SDS011;75295;45.426;9.696;2024-03-29T03:45:39;27.95;;;21.35;;
84982;SDS011;75295;45.426;9.696;2024-03-29T03:48:07;26.63;;;22.25;;
84982;SDS011;75295;45.426;9.696;2024-03-29T03:50:38;22.77;;;19.00;;
84982;SDS011;75295;45.426;9.696;2024-03-29T03:53:07;25.05;;;19.20;;
84982;SDS011;75295;45.426;9.696;2024-03-29T03:55:38;27.38;;;19.52;;
84982;SDS011;75295;45.426;9.696;2024-03-29T03:58:05;24.80;;;20.40;;
84982;SDS011;75295;45.426;9.696;2024-03-29T04:00:32;24.35;;;19.20;;
84982;SDS011;75295;45.426;9.696;2024-03-29T04:03:00;21.52;;;17.85;;
84982;SDS011;75295;45.426;9.696;2024-03-29T04:05:26;24.83;;;20.00;;
84982;SDS011;75295;45.426;9.696;2024-03-29T04:07:53;23.45;;;18.67;;
84982;SDS011;75295;45.426;9.696;2024-03-29T04:10:20;26.40;;;20.25;;
84982;SDS011;75295;45.426;9.696;2024-03-29T04:12:47;26.30;;;20.80;;
84982;SDS011;75295;45.426;9.696;2024-03-29T04:15:13;23.17;;;19.27;;
84982;SDS011;75295;45.426;9.696;2024-03-29T04:17:40;27.63;;;21.80;;
84982;SDS011;75295;45.426;9.696;2024-03-29T04:20:07;25.92;;;20.35;;
84982;SDS011;75295;45.426;9.696;2024-03-29T04:22:34;27.20;;;21.80;;
84982;SDS011;75295;45.426;9.696;2024-03-29T04:25:01;30.15;;;21.52;;
84982;SDS011;75295;45.426;9.696;2024-03-29T04:27:28;31.17;;;23.63;;
84982;SDS011;75295;45.426;9.696;2024-03-29T04:29:55;33.20;;;24.88;;
84982;SDS011;75295;45.426;9.696;2024-03-29T04:32:21;32.95;;;24.75;;
84982;SDS011;75295;45.426;9.696;2024-03-29T04:34:49;38.35;;;26.48;;
84982;SDS011;75295;45.426;9.696;2024-03-29T04:37:17;34.75;;;25.73;;
84982;SDS011;75295;45.426;9.696;2024-03-29T04:39:45;35.92;;;26.98;;
84982;SDS011;75295;45.426;9.696;2024-03-29T04:42:12;35.42;;;26.50;;
84982;SDS011;75295;45.426;9.696;2024-03-29T04:44:40;38.63;;;27.77;;
84982;SDS011;75295;45.426;9.696;2024-03-29T04:47:08;38.40;;;30.20;;
84982;SDS011;75295;45.426;9.696;2024-03-29T04:49:36;39.80;;;29.65;;
84982;SDS011;75295;45.426;9.696;2024-03-29T04:52:03;47.90;;;32.20;;
84982;SDS011;75295;45.426;9.696;2024-03-29T04:54:33;48.55;;;34.13;;
84982;SDS011;75295;45.426;9.696;2024-03-29T04:57:00;51.22;;;37.05;;
84982;SDS011;75295;45.426;9.696;2024-03-29T04:59:29;52.67;;;36.47;;
84982;SDS011;75295;45.426;9.696;2024-03-29T05:01:56;51.17;;;35.42;;
84982;SDS011;75295;45.426;9.696;2024-03-29T05:04:25;54.17;;;37.33;;
84982;SDS011;75295;45.426;9.696;2024-03-29T05:06:52;56.00;;;38.38;;
84982;SDS011;75295;45.426;9.696;2024-03-29T05:09:23;59.72;;;39.58;;
84982;SDS011;75295;45.426;9.696;2024-03-29T05:11:51;55.60;;;37.65;;
84982;SDS011;75295;45.426;9.696;2024-03-29T05:14:19;55.65;;;39.25;;
84982;SDS011;75295;45.426;9.696;2024-03-29T05:16:48;55.97;;;38.15;;
84982;SDS011;75295;45.426;9.696;2024-03-29T05:19:15;55.75;;;38.35;;
84982;SDS011;75295;45.426;9.696;2024-03-29T05:21:42;56.60;;;39.83;;
84982;SDS011;75295;45.426;9.696;2024-03-29T05:24:09;58.83;;;38.75;;
84982;SDS011;75295;45.426;9.696;2024-03-29T05:26:35;57.53;;;39.50;;
84982;SDS011;75295;45.426;9.696;2024-03-29T05:29:02;55.05;;;39.08;;
84982;SDS011;75295;45.426;9.696;2024-03-29T05:31:30;59.30;;;43.47;;
84982;SDS011;75295;45.426;9.696;2024-03-29T05:33:56;67.22;;;43.85;;
84982;SDS011;75295;45.426;9.696;2024-03-29T05:36:23;68.95;;;43.38;;
84982;SDS011;75295;45.426;9.696;2024-03-29T05:38:50;64.68;;;42.53;;
84982;SDS011;75295;45.426;9.696;2024-03-29T05:41:16;67.63;;;46.22;;
84982;SDS011;75295;45.426;9.696;2024-03-29T05:43:43;65.47;;;45.30;;
84982;SDS011;75295;45.426;9.696;2024-03-29T05:46:10;67.32;;;43.40;;
84982;SDS011;75295;45.426;9.696;2024-03-29T05:48:36;59.67;;;42.25;;
84982;SDS011;75295;45.426;9.696;2024-03-29T05:51:04;61.47;;;43.13;;
84982;SDS011;75295;45.426;9.696;2024-03-29T05:53:31;57.45;;;42.25;;
84982;SDS011;75295;45.426;9.696;2024-03-29T05:55:58;56.95;;;42.15;;
84982;SDS011;75295;45.426;9.696;2024-03-29T05:58:24;56.13;;;41.92;;
84982;SDS011;75295;45.426;9.696;2024-03-29T06:00:51;61.50;;;42.72;;
84982;SDS011;75295;45.426;9.696;2024-03-29T06:03:18;60.30;;;43.80;;
84982;SDS011;75295;45.426;9.696;2024-03-29T06:05:44;57.13;;;42.38;;
84982;SDS011;75295;45.426;9.696;2024-03-29T06:08:12;60.45;;;44.10;;
84982;SDS011;75295;45.426;9.696;2024-03-29T06:10:38;59.30;;;44.13;;
84982;SDS011;75295;45.426;9.696;2024-03-29T06:13:05;59.45;;;44.20;;
84982;SDS011;75295;45.426;9.696;2024-03-29T06:15:55;58.97;;;44.03;;
84982;SDS011;75295;45.426;9.696;2024-03-29T06:18:40;53.50;;;38.97;;
84982;SDS011;75295;45.426;9.696;2024-03-29T06:21:07;55.88;;;41.03;;
84982;SDS011;75295;45.426;9.696;2024-03-29T06:23:33;54.65;;;43.03;;
84982;SDS011;75295;45.426;9.696;2024-03-29T06:26:00;51.25;;;39.95;;
84982;SDS011;75295;45.426;9.696;2024-03-29T06:28:27;57.08;;;42.80;;
84982;SDS011;75295;45.426;9.696;2024-03-29T06:30:54;50.45;;;37.13;;
84982;SDS011;75295;45.426;9.696;2024-03-29T06:33:20;46.13;;;37.75;;
84982;SDS011;75295;45.426;9.696;2024-03-29T06:35:54;49.42;;;38.40;;
84982;SDS011;75295;45.426;9.696;2024-03-29T06:38:21;53.20;;;39.50;;
84982;SDS011;75295;45.426;9.696;2024-03-29T06:40:48;50.50;;;37.95;;
84982;SDS011;75295;45.426;9.696;2024-03-29T06:43:14;51.83;;;39.80;;
84982;SDS011;75295;45.426;9.696;2024-03-29T06:45:41;51.33;;;39.00;;
84982;SDS011;75295;45.426;9.696;2024-03-29T06:48:11;49.22;;;37.35;;
84982;SDS011;75295;45.426;9.696;2024-03-29T06:50:38;54.65;;;39.75;;
84982;SDS011;75295;45.426;9.696;2024-03-29T06:53:06;58.88;;;42.53;;
84982;SDS011;75295;45.426;9.696;2024-03-29T06:55:35;57.88;;;40.45;;
84982;SDS011;75295;45.426;9.696;2024-03-29T06:58:03;51.13;;;40.13;;
84982;SDS011;75295;45.426;9.696;2024-03-29T07:00:30;50.70;;;38.47;;
84982;SDS011;75295;45.426;9.696;2024-03-29T07:02:57;55.83;;;40.83;;
84982;SDS011;75295;45.426;9.696;2024-03-29T07:05:24;49.92;;;38.10;;
84982;SDS011;75295;45.426;9.696;2024-03-29T07:07:50;59.08;;;39.97;;
84982;SDS011;75295;45.426;9.696;2024-03-29T07:10:17;55.33;;;40.10;;
84982;SDS011;75295;45.426;9.696;2024-03-29T07:12:44;50.83;;;37.75;;
84982;SDS011;75295;45.426;9.696;2024-03-29T07:15:11;53.97;;;38.78;;
84982;SDS011;75295;45.426;9.696;2024-03-29T07:17:38;51.55;;;36.65;;
84982;SDS011;75295;45.426;9.696;2024-03-29T07:20:06;51.92;;;38.58;;
84982;SDS011;75295;45.426;9.696;2024-03-29T07:22:34;47.03;;;34.08;;
84982;SDS011;75295;45.426;9.696;2024-03-29T07:25:01;43.92;;;31.35;;
84982;SDS011;75295;45.426;9.696;2024-03-29T07:27:27;54.03;;;36.72;;
84982;SDS011;75295;45.426;9.696;2024-03-29T07:29:59;50.17;;;37.00;;
84982;SDS011;75295;45.426;9.696;2024-03-29T07:32:26;54.30;;;38.78;;
84982;SDS011;75295;45.426;9.696;2024-03-29T07:34:53;54.42;;;38.08;;
84982;SDS011;75295;45.426;9.696;2024-03-29T07:37:22;53.67;;;37.92;;
84982;SDS011;75295;45.426;9.696;2024-03-29T07:39:49;54.15;;;37.15;;
84982;SDS011;75295;45.426;9.696;2024-03-29T07:42:16;54.53;;;38.03;;
84982;SDS011;75295;45.426;9.696;2024-03-29T07:44:43;54.75;;;38.15;;
84982;SDS011;75295;45.426;9.696;2024-03-29T07:47:10;54.30;;;37.83;;
84982;SDS011;75295;45.426;9.696;2024-03-29T07:49:39;56.95;;;38.53;;
84982;SDS011;75295;45.426;9.696;2024-03-29T07:52:06;57.78;;;37.78;;
84982;SDS011;75295;45.426;9.696;2024-03-29T07:54:34;55.15;;;38.67;;
84982;SDS011;75295;45.426;9.696;2024-03-29T07:57:01;52.60;;;38.08;;
84982;SDS011;75295;45.426;9.696;2024-03-29T07:59:29;62.22;;;39.50;;
84982;SDS011;75295;45.426;9.696;2024-03-29T08:01:56;61.22;;;40.72;;
84982;SDS011;75295;45.426;9.696;2024-03-29T08:04:24;55.60;;;38.33;;
84982;SDS011;75295;45.426;9.696;2024-03-29T08:06:53;56.05;;;38.25;;
84982;SDS011;75295;45.426;9.696;2024-03-29T08:09:20;56.33;;;36.53;;
84982;SDS011;75295;45.426;9.696;2024-03-29T08:11:47;54.13;;;35.22;;
84982;SDS011;75295;45.426;9.696;2024-03-29T08:14:14;55.00;;;34.15;;
84982;SDS011;75295;45.426;9.696;2024-03-29T08:16:41;49.70;;;34.17;;
84982;SDS011;75295;45.426;9.696;2024-03-29T08:19:08;49.20;;;32.60;;
84982;SDS011;75295;45.426;9.696;2024-03-29T08:21:35;49.60;;;33.72;;
84982;SDS011;75295;45.426;9.696;2024-03-29T08:24:02;53.15;;;36.67;;
84982;SDS011;75295;45.426;9.696;2024-03-29T08:26:30;55.90;;;36.03;;
84982;SDS011;75295;45.426;9.696;2024-03-29T08:28:57;49.72;;;34.05;;
84982;SDS011;75295;45.426;9.696;2024-03-29T08:31:23;51.50;;;33.40;;
84982;SDS011;75295;45.426;9.696;2024-03-29T08:33:50;46.88;;;32.15;;
84982;SDS011;75295;45.426;9.696;2024-03-29T08:36:18;56.88;;;37.28;;
84982;SDS011;75295;45.426;9.696;2024-03-29T08:38:45;48.10;;;30.40;;
84982;SDS011;75295;45.426;9.696;2024-03-29T08:41:13;50.05;;;31.45;;
84982;SDS011;75295;45.426;9.696;2024-03-29T08:43:40;44.22;;;31.23;;
84982;SDS011;75295;45.426;9.696;2024-03-29T08:46:07;53.67;;;33.42;;
84982;SDS011;75295;45.426;9.696;2024-03-29T08:48:35;47.15;;;32.95;;
84982;SDS011;75295;45.426;9.696;2024-03-29T08:51:03;45.22;;;30.63;;
84982;SDS011;75295;45.426;9.696;2024-03-29T08:53:30;47.60;;;32.30;;
84982;SDS011;75295;45.426;9.696;2024-03-29T08:55:57;48.03;;;32.60;;
84982;SDS011;75295;45.426;9.696;2024-03-29T08:58:23;35.03;;;25.88;;
84982;SDS011;75295;45.426;9.696;2024-03-29T09:00:54;27.40;;;20.63;;
84982;SDS011;75295;45.426;9.696;2024-03-29T09:03:22;27.95;;;18.00;;
84982;SDS011;75295;45.426;9.696;2024-03-29T09:05:50;25.17;;;17.58;;
84982;SDS011;75295;45.426;9.696;2024-03-29T09:08:17;27.83;;;18.35;;
84982;SDS011;75295;45.426;9.696;2024-03-29T09:10:44;26.83;;;16.48;;
84982;SDS011;75295;45.426;9.696;2024-03-29T09:13:11;21.67;;;13.38;;
84982;SDS011;75295;45.426;9.696;2024-03-29T09:15:38;19.65;;;12.45;;
84982;SDS011;75295;45.426;9.696;2024-03-29T09:18:05;17.48;;;11.57;;
84982;SDS011;75295;45.426;9.696;2024-03-29T09:21:01;16.13;;;11.25;;
84982;SDS011;75295;45.426;9.696;2024-03-29T09:23:29;18.52;;;12.23;;
84982;SDS011;75295;45.426;9.696;2024-03-29T09:25:58;19.65;;;12.77;;
84982;SDS011;75295;45.426;9.696;2024-03-29T09:28:24;16.05;;;11.68;;
84982;SDS011;75295;45.426;9.696;2024-03-29T09:30:58;17.02;;;10.50;;
84982;SDS011;75295;45.426;9.696;2024-03-29T09:33:26;13.70;;;9.32;;
84982;SDS011;75295;45.426;9.696;2024-03-29T09:35:53;18.75;;;9.93;;
84982;SDS011;75295;45.426;9.696;2024-03-29T09:38:20;17.48;;;10.95;;
84982;SDS011;75295;45.426;9.696;2024-03-29T09:40:48;15.85;;;11.32;;
84982;SDS011;75295;45.426;9.696;2024-03-29T09:43:26;17.67;;;11.60;;
84982;SDS011;75295;45.426;9.696;2024-03-29T09:45:54;18.02;;;11.90;;
84982;SDS011;75295;45.426;9.696;2024-03-29T09:48:21;15.88;;;10.90;;
84982;SDS011;75295;45.426;9.696;2024-03-29T09:50:49;13.70;;;9.80;;
84982;SDS011;75295;45.426;9.696;2024-03-29T09:53:20;13.25;;;9.90;;
84982;SDS011;75295;45.426;9.696;2024-03-29T09:55:49;15.57;;;9.52;;
84982;SDS011;75295;45.426;9.696;2024-03-29T09:58:17;17.42;;;10.52;;
84982;SDS011;75295;45.426;9.696;2024-03-29T10:00:43;16.58;;;9.93;;
84982;SDS011;75295;45.426;9.696;2024-03-29T10:03:10;15.80;;;10.70;;
84982;SDS011;75295;45.426;9.696;2024-03-29T10:05:39;16.38;;;9.45;;
84982;SDS011;75295;45.426;9.696;2024-03-29T10:08:05;12.45;;;7.93;;
84982;SDS011;75295;45.426;9.696;2024-03-29T10:10:33;11.98;;;7.88;;
84982;SDS011;75295;45.426;9.696;2024-03-29T10:13:01;14.68;;;7.75;;
84982;SDS011;75295;45.426;9.696;2024-03-29T10:15:29;13.68;;;9.45;;
84982;SDS011;75295;45.426;9.696;2024-03-29T10:17:59;12.70;;;8.38;;
84982;SDS011;75295;45.426;9.696;2024-03-29T10:20:26;18.25;;;8.20;;
84982;SDS011;75295;45.426;9.696;2024-03-29T10:22:53;15.00;;;7.72;;
84982;SDS011;75295;45.426;9.696;2024-03-29T10:25:21;15.82;;;9.02;;
84982;SDS011;75295;45.426;9.696;2024-03-29T10:27:48;19.55;;;13.90;;
84982;SDS011;75295;45.426;9.696;2024-03-29T10:30:15;15.23;;;10.10;;
84982;SDS011;75295;45.426;9.696;2024-03-29T10:32:45;11.90;;;8.27;;
84982;SDS011;75295;45.426;9.696;2024-03-29T10:35:12;15.55;;;7.50;;
84982;SDS011;75295;45.426;9.696;2024-03-29T10:37:41;11.98;;;7.28;;
84982;SDS011;75295;45.426;9.696;2024-03-29T10:40:09;11.68;;;6.88;;
84982;SDS011;75295;45.426;9.696;2024-03-29T10:42:37;12.05;;;7.38;;
84982;SDS011;75295;45.426;9.696;2024-03-29T10:45:07;13.43;;;7.90;;
84982;SDS011;75295;45.426;9.696;2024-03-29T10:47:34;15.35;;;8.23;;
84982;SDS011;75295;45.426;9.696;2024-03-29T10:50:02;15.48;;;7.88;;
84982;SDS011;75295;45.426;9.696;2024-03-29T10:52:31;12.10;;;7.68;;
84982;SDS011;75295;45.426;9.696;2024-03-29T10:54:58;16.17;;;8.40;;
84982;SDS011;75295;45.426;9.696;2024-03-29T10:57:26;13.13;;;8.15;;
84982;SDS011;75295;45.426;9.696;2024-03-29T11:00:03;11.23;;;7.93;;
84982;SDS011;75295;45.426;9.696;2024-03-29T11:02:57;14.85;;;9.30;;
84982;SDS011;75295;45.426;9.696;2024-03-29T11:05:40;12.27;;;7.97;;
84982;SDS011;75295;45.426;9.696;2024-03-29T11:08:16;11.80;;;8.50;;
84982;SDS011;75295;45.426;9.696;2024-03-29T11:10:49;17.75;;;9.77;;
84982;SDS011;75295;45.426;9.696;2024-03-29T11:13:19;12.57;;;8.95;;
84982;SDS011;75295;45.426;9.696;2024-03-29T11:16:00;16.75;;;9.88;;
84982;SDS011;75295;45.426;9.696;2024-03-29T11:18:27;18.40;;;10.57;;
84982;SDS011;75295;45.426;9.696;2024-03-29T11:20:58;13.50;;;8.55;;
84982;SDS011;75295;45.426;9.696;2024-03-29T11:23:27;16.60;;;8.45;;
84982;SDS011;75295;45.426;9.696;2024-03-29T11:25:55;17.63;;;7.72;;
84982;SDS011;75295;45.426;9.696;2024-03-29T11:28:33;15.57;;;6.88;;
84982;SDS011;75295;45.426;9.696;2024-03-29T11:31:02;13.65;;;6.22;;
84982;SDS011;75295;45.426;9.696;2024-03-29T11:33:34;17.38;;;6.75;;
84982;SDS011;75295;45.426;9.696;2024-03-29T11:36:21;20.48;;;9.07;;
84982;SDS011;75295;45.426;9.696;2024-03-29T11:38:53;14.98;;;6.30;;
84982;SDS011;75295;45.426;9.696;2024-03-29T11:41:26;13.10;;;6.37;;
84982;SDS011;75295;45.426;9.696;2024-03-29T11:43:55;13.15;;;7.22;;
84982;SDS011;75295;45.426;9.696;2024-03-29T11:46:23;11.88;;;5.90;;
84982;SDS011;75295;45.426;9.696;2024-03-29T11:48:51;14.90;;;6.70;;
84982;SDS011;75295;45.426;9.696;2024-03-29T11:51:19;13.13;;;6.55;;
84982;SDS011;75295;45.426;9.696;2024-03-29T11:53:49;18.85;;;6.53;;
84982;SDS011;75295;45.426;9.696;2024-03-29T11:56:19;17.95;;;6.90;;
84982;SDS011;75295;45.426;9.696;2024-03-29T11:58:47;18.17;;;6.70;;
84982;SDS011;75295;45.426;9.696;2024-03-29T12:01:14;13.25;;;6.38;;
84982;SDS011;75295;45.426;9.696;2024-03-29T12:03:42;18.00;;;6.70;;
84982;SDS011;75295;45.426;9.696;2024-03-29T12:06:10;16.13;;;7.70;;
84982;SDS011;75295;45.426;9.696;2024-03-29T12:08:40;12.43;;;6.90;;
84982;SDS011;75295;45.426;9.696;2024-03-29T12:11:08;16.50;;;6.80;;
84982;SDS011;75295;45.426;9.696;2024-03-29T12:13:36;21.27;;;8.77;;
84982;SDS011;75295;45.426;9.696;2024-03-29T12:16:02;11.32;;;6.78;;
84982;SDS011;75295;45.426;9.696;2024-03-29T12:18:30;22.55;;;9.23;;
84982;SDS011;75295;45.426;9.696;2024-03-29T12:20:57;14.18;;;7.15;;
84982;SDS011;75295;45.426;9.696;2024-03-29T12:23:24;16.75;;;7.60;;
84982;SDS011;75295;45.426;9.696;2024-03-29T12:25:53;12.57;;;7.60;;
84982;SDS011;75295;45.426;9.696;2024-03-29T12:28:23;13.40;;;6.90;;
84982;SDS011;75295;45.426;9.696;2024-03-29T12:30:51;12.45;;;7.47;;
84982;SDS011;75295;45.426;9.696;2024-03-29T12:33:21;13.43;;;8.05;;
84982;SDS011;75295;45.426;9.696;2024-03-29T12:35:49;16.45;;;8.35;;
84982;SDS011;75295;45.426;9.696;2024-03-29T12:38:21;16.38;;;8.77;;
84982;SDS011;75295;45.426;9.696;2024-03-29T12:40:49;15.05;;;9.50;;
84982;SDS011;75295;45.426;9.696;2024-03-29T12:43:20;18.15;;;8.27;;
84982;SDS011;75295;45.426;9.696;2024-03-29T12:45:50;13.23;;;7.82;;
84982;SDS011;75295;45.426;9.696;2024-03-29T12:48:18;14.75;;;7.93;;
84982;SDS011;75295;45.426;9.696;2024-03-29T12:50:47;12.60;;;8.40;;
84982;SDS011;75295;45.426;9.696;2024-03-29T12:53:14;14.80;;;7.88;;
84982;SDS011;75295;45.426;9.696;2024-03-29T12:55:46;17.92;;;8.25;;
84982;SDS011;75295;45.426;9.696;2024-03-29T12:58:14;13.85;;;8.43;;
84982;SDS011;75295;45.426;9.696;2024-03-29T13:00:43;13.15;;;7.97;;
84982;SDS011;75295;45.426;9.696;2024-03-29T13:03:10;14.50;;;8.13;;
84982;SDS011;75295;45.426;9.696;2024-03-29T13:05:38;15.05;;;8.60;;
84982;SDS011;75295;45.426;9.696;2024-03-29T13:08:08;13.20;;;8.00;;
84982;SDS011;75295;45.426;9.696;2024-03-29T13:10:40;11.88;;;7.90;;
84982;SDS011;75295;45.426;9.696;2024-03-29T13:13:07;14.45;;;8.02;;
84982;SDS011;75295;45.426;9.696;2024-03-29T13:15:36;12.60;;;7.38;;
84982;SDS011;75295;45.426;9.696;2024-03-29T13:18:05;14.35;;;7.97;;
84982;SDS011;75295;45.426;9.696;2024-03-29T13:20:34;14.00;;;8.02;;
84982;SDS011;75295;45.426;9.696;2024-03-29T13:23:06;12.75;;;8.45;;
84982;SDS011;75295;45.426;9.696;2024-03-29T13:25:34;17.65;;;8.70;;
84982;SDS011;75295;45.426;9.696;2024-03-29T13:28:00;13.98;;;8.73;;
84982;SDS011;75295;45.426;9.696;2024-03-29T13:30:27;13.45;;;8.55;;
84982;SDS011;75295;45.426;9.696;2024-03-29T13:32:54;18.50;;;10.15;;
84982;SDS011;75295;45.426;9.696;2024-03-29T13:35:21;12.88;;;8.63;;
84982;SDS011;75295;45.426;9.696;2024-03-29T13:37:49;14.95;;;8.23;;
84982;SDS011;75295;45.426;9.696;2024-03-29T13:40:19;16.45;;;9.63;;
84982;SDS011;75295;45.426;9.696;2024-03-29T13:42:48;19.00;;;8.90;;
84982;SDS011;75295;45.426;9.696;2024-03-29T13:45:15;15.80;;;9.73;;
84982;SDS011;75295;45.426;9.696;2024-03-29T13:47:43;18.75;;;10.05;;
84982;SDS011;75295;45.426;9.696;2024-03-29T13:50:14;13.20;;;8.75;;
84982;SDS011;75295;45.426;9.696;2024-03-29T13:52:41;16.58;;;9.10;;
84982;SDS011;75295;45.426;9.696;2024-03-29T13:57:54;17.10;;;9.13;;
84982;SDS011;75295;45.426;9.696;2024-03-29T14:00:21;16.30;;;9.05;;
84982;SDS011;75295;45.426;9.696;2024-03-29T14:02:48;16.02;;;9.38;;
84982;SDS011;75295;45.426;9.696;2024-03-29T14:05:15;16.80;;;9.15;;
84982;SDS011;75295;45.426;9.696;2024-03-29T14:07:41;19.50;;;9.65;;
84982;SDS011;75295;45.426;9.696;2024-03-29T14:10:08;18.98;;;10.75;;
84982;SDS011;75295;45.426;9.696;2024-03-29T14:12:35;18.58;;;10.52;;
84982;SDS011;75295;45.426;9.696;2024-03-29T14:15:02;13.77;;;8.88;;
84982;SDS011;75295;45.426;9.696;2024-03-29T14:17:31;16.48;;;10.40;;
84982;SDS011;75295;45.426;9.696;2024-03-29T14:19:58;15.23;;;9.38;;
84982;SDS011;75295;45.426;9.696;2024-03-29T14:22:25;15.68;;;9.88;;
84982;SDS011;75295;45.426;9.696;2024-03-29T14:24:52;19.63;;;9.32;;
84982;SDS011;75295;45.426;9.696;2024-03-29T14:27:18;14.95;;;8.80;;
84982;SDS011;75295;45.426;9.696;2024-03-29T14:29:45;15.82;;;8.82;;
84982;SDS011;75295;45.426;9.696;2024-03-29T14:32:12;19.63;;;9.55;;
84982;SDS011;75295;45.426;9.696;2024-03-29T14:34:39;18.77;;;10.02;;